Tiempo atmosférico en la estación meteorológica de Forua, Bizkaia (45 m.)



Fecha
DESCASC
Temp. máxima en grados centígrados (hora)
DESCASC
Temp. mínima en grados centígrados (hora)
DESCASC
Temp. media en grados centígrados
DESCASC
Racha de viento máxima en m/sg (hora)
DESCASC
Velocidad máxima media en intervalos de 10 minutos(hora)
DESCASC
Precipitaciones diarias en mm
DESCASC
Precipitaciones de 00:00 a 06:00 en mm
DESCASC
Precipitaciones de 06:00 a 12:00 en mm
DESCASC
Precipitaciones de 12:00 a 18:00 en mm
DESCASC
Precipitaciones de 18:00 a 24:00 en mm
DESCASC
23-06-2019 26 (12:20) 16.8 (03:50) 21.4 7.22 (14:40) 4.17 (15:20) 0 0 0 0 0
22-06-2019 25.4 (17:10) 8.6 (06:50) 17 8.33 (16:30) 4.72 (16:00) 0 0 0 0 0
21-06-2019 19.9 (13:40) 12.3 (23:59) 16.1 7.22 (15:50) 4.17 (17:40) 8.6 3.8 4.8 0 0
20-06-2019 20.6 (18:10) 15.5 (00:00) 18.1 6.39 (18:10) 3.33 (16:40) 0.6 0 0.6 0 0
19-06-2019 -- (--) -- (--) -- -- (--) -- (--) -- 0 0 -- 0
18-06-2019 33.9 (15:30) 13.3 (00:00) 23.6 10 (16:50) 5.56 (16:50) 0 0 0 0 0
17-06-2019 24.8 (15:10) 14.8 (00:00) 19.8 10.56 (18:20) 6.94 (18:30) 0 0 0 0 0
16-06-2019 22.5 (18:30) 8 (00:00) 15.3 8.06 (18:10) 5 (13:30) 0 0 0 0 0
15-06-2019 21.4 (16:00) 10.7 (00:00) 16 7.22 (15:00) 3.89 (15:40) 0 0 0 0 0
14-06-2019 16.7 (16:40) 10.7 (00:00) 13.7 6.11 (17:00) 3.61 (17:00) 0.4 0 0 0 0.4
13-06-2019 18.6 (13:10) 8.1 (00:00) 13.4 8.33 (14:00) 4.17 (14:00) 0 0 0 0 0
12-06-2019 19.3 (17:00) 11.3 (00:00) 15.3 8.89 (17:40) 4.44 (17:40) 0.2 0 0.2 0 0
11-06-2019 16.6 (18:40) 10.3 (00:00) 13.5 11.67 (14:30) 5.56 (16:50) 14 6.2 5 2.8 0
10-06-2019 18.3 (15:40) 10.8 (00:00) 14.5 6.67 (16:00) 3.61 (15:50) 1 0.4 0 0 0.6
09-06-2019 20.2 (11:50) 13.1 (00:00) 16.7 8.61 (14:10) 5 (13:30) 1.6 0 0 0.6 1
08-06-2019 18.7 (15:00) 7.9 (00:00) 13.3 8.89 (14:10) 5.28 (14:10) 0 0 0 0 0
07-06-2019 22 (00:50) 11.7 (00:00) 16.8 22.22 (01:10) 8.61 (01:00) 0 0 0 0 0
06-06-2019 23.6 (22:40) 9.3 (00:00) 16.5 14.17 (22:50) 8.33 (23:00) 0 0 0 0 0
05-06-2019 17.1 (16:30) 11.7 (00:00) 14.4 12.5 (14:50) 5.28 (18:50) 18.6 5 8.2 5.4 0
04-06-2019 23.7 (11:10) 13.8 (00:00) 18.8 13.06 (17:20) 7.22 (17:20) 1.8 0 0 0 1.8
03-06-2019 24.1 (15:40) 12.7 (00:00) 18.4 7.5 (17:20) 4.72 (17:20) 0 0 0 0 0
02-06-2019 26.6 (11:10) 13.9 (00:00) 20.3 10 (14:50) 5.83 (15:20) 0 0 0 0 0
01-06-2019 32.8 (14:40) 12.4 (00:00) 22.6 7.5 (11:50) 4.44 (11:50) 0 0 0 0 0
31-05-2019 26.8 (16:10) 10.5 (00:00) 18.6 8.06 (15:00) 4.44 (15:20) 0 0 0 0 0
30-05-2019 23.4 (16:20) 7.3 (00:00) 15.3 7.78 (13:20) 5 (13:40) 0 0 0 0 0
29-05-2019 20.2 (15:40) 11.6 (00:00) 15.9 7.5 (16:30) 4.44 (16:40) 3.6 3.6 0 0 0
28-05-2019 17.9 (17:10) 9.9 (00:00) 13.9 12.5 (18:30) 6.94 (18:20) 1.4 0 0.6 0.8 0
27-05-2019 16.6 (17:00) 12.6 (00:00) 14.6 6.94 (18:40) 3.89 (16:30) 2.2 0.4 0.4 1.4 0
26-05-2019 17.5 (16:20) 12.3 (00:00) 14.9 6.67 (15:50) 3.61 (17:50) 1.6 0 1.4 0 0.2

Gráficas

Temp. máximas Temp. mínimas Temp. medias Precipitaciones Rachas de viento máximas Velocidades máximas media en intervalos de 10 minutos

Datos horarios

Fecha y hora oficial Temperatura (ºC) Velocidad del viento (km/h) Dirección del viento Racha (km/h) Dirección de racha Precipitación (mm) Presión (hPa) Tendencia (hPa) Humedad (%)
2019-06-24 23:00:00 18 11 Oeste 28 Noroeste 0 -- -- 90
2019-06-24 22:00:00 18.7 13 Noroeste 27 Noroeste 0 -- -- 85
2019-06-24 21:00:00 19.3 13 Norte 39 Norte 0 -- -- 82
2019-06-24 20:00:00 20.3 12 Norte 39 Noroeste 0 -- -- 79
2019-06-24 19:00:00 21.1 20 Noroeste 39 Noroeste 0 -- -- 77
2019-06-24 18:00:00 24.7 7 Norte 19 Nordeste 0 -- -- 73
2019-06-24 17:00:00 23.4 8 Nordeste 19 Nordeste 0 -- -- 81
2019-06-24 16:00:00 23 6 Nordeste 22 Norte 0 -- -- 82
2019-06-24 15:00:00 21.5 12 Nordeste 24 Nordeste 0 -- -- 83
2019-06-24 14:00:00 22.6 7 Nordeste 17 Nordeste 0 -- -- 79
2019-06-24 13:00:00 22.2 8 Nordeste 14 Nordeste 0 -- -- 81
2019-06-24 12:00:00 22.3 4 Este 17 Norte 0 -- -- 79
2019-06-24 11:00:00 19.9 7 Norte 14 Norte 0 -- -- 86
2019-06-24 10:00:00 19.9 3 Nordeste 6 Nordeste 0 -- -- 87
2019-06-24 09:00:00 18.1 2 Sudeste 4 Sudeste 0 -- -- 94
2019-06-24 08:00:00 17.4 0 Calma 6 Oeste 0 -- -- 95
2019-06-24 07:00:00 17 3 Sudoeste 6 Sudoeste 0 -- -- 94
2019-06-24 06:00:00 17 3 Sudoeste 12 Oeste 0 -- -- 95
2019-06-24 05:00:00 16.6 6 Oeste 15 Sudoeste 0 -- -- 97
2019-06-24 04:00:00 16.4 2 Sudoeste 8 Este 0 -- -- 97
2019-06-24 03:00:00 16.6 3 Sur 5 Norte 0 -- -- 96
2019-06-24 02:00:00 16.8 3 Sudeste 8 Noroeste 0 -- -- 96
2019-06-24 01:00:00 16.9 4 Noroeste 9 Noroeste 0 -- -- 94
2019-06-24 00:00:00 17.4 2 Oeste 6 Norte 0 -- -- 92
2019-06-23 23:00:00 17.9 4 Nordeste 17 Norte 0 -- -- 90
2019-06-23 22:00:00 18.7 10 Norte 16 Norte 0 -- -- 84
2019-06-23 21:00:00 19.9 7 Nordeste 14 Norte 0 -- -- 78
2019-06-23 20:00:00 21.1 8 Nordeste 18 Nordeste 0 -- -- 73
2019-06-23 19:00:00 21.9 6 Nordeste 19 Nordeste 0 -- -- 70
2019-06-23 18:00:00 23.4 11 Norte 21 Nordeste 0 -- -- 66
2019-06-23 17:00:00 24.1 14 Nordeste 25 Este 0 -- -- 65
2019-06-23 16:00:00 23.6 10 Norte 24 Nordeste 0 -- -- 70
2019-06-23 15:00:00 24.1 13 Norte 26 Norte 0 -- -- 67
2019-06-23 14:00:00 25.5 10 Nordeste 16 Nordeste 0 -- -- 64
2019-06-23 13:00:00 25.8 6 Norte 13 Nordeste 0 -- -- 67
2019-06-23 12:00:00 25.6 4 Norte 9 Sudoeste 0 -- -- 68
2019-06-23 11:00:00 23.7 6 Sudoeste 14 Sudoeste 0 -- -- 70
2019-06-23 10:00:00 21.3 9 Sudoeste 15 Sudoeste 0 -- -- 74
2019-06-23 09:00:00 20.5 10 Oeste 19 Oeste 0 -- -- 75
2019-06-23 08:00:00 19.7 3 Sudeste 11 Sur 0 -- -- 79
2019-06-23 07:00:00 18.2 4 Sudoeste 9 Sudoeste 0 -- -- 87
2019-06-23 06:00:00 17.2 3 Sur 7 Sudoeste 0 -- -- 96
2019-06-23 05:00:00 16.8 6 Sudoeste 10 Sudoeste 0 -- -- 97
2019-06-23 04:00:00 16.8 4 Sudoeste 8 Oeste 0 -- -- 97
2019-06-23 03:00:00 17 5 Sudoeste 10 Sudoeste 0 -- -- 96
2019-06-23 02:00:00 17.7 4 Sudoeste 8 Sudoeste 0 -- -- 94
2019-06-23 01:00:00 18.5 5 Sudoeste 7 Sudoeste 0 -- -- 92
2019-06-23 00:00:00 19.2 5 Oeste 6 Oeste 0 -- -- 89
2019-06-22 23:00:00 20.3 3 Nordeste 10 Norte 0 -- -- 83
2019-06-22 22:00:00 21 6 Norte 11 Norte 0 -- -- 79
2019-06-22 21:00:00 22.5 6 Nordeste 16 Este 0 -- -- 75
2019-06-22 20:00:00 24.1 6 Nordeste 23 Este 0 -- -- 69
2019-06-22 19:00:00 24.5 12 Este 26 Este 0 -- -- 66
2019-06-22 18:00:00 25 15 Este 28 Este 0 -- -- 64
2019-06-22 17:00:00 25.1 14 Norte 30 Norte 0 -- -- 67
2019-06-22 16:00:00 24.9 17 Norte 27 Norte 0 -- -- 67
2019-06-22 15:00:00 24 13 Nordeste 27 Norte 0 -- -- 68
2019-06-22 14:00:00 24.1 13 Norte 22 Nordeste 0 -- -- 69
2019-06-22 13:00:00 23.2 10 Nordeste 21 Nordeste 0 -- -- 70
2019-06-22 12:00:00 22 7 Nordeste 15 Norte 0 -- -- 69
2019-06-22 11:00:00 19.8 5 Este 12 Este 0 -- -- 73
2019-06-22 10:00:00 16.8 2 Sudeste 5 Este 0 -- -- 87
2019-06-22 09:00:00 14 2 Sudeste 8 Sudoeste 0 -- -- 94
2019-06-22 08:00:00 10.5 5 Sudoeste 8 Sudoeste 0 -- -- 100
2019-06-22 07:00:00 8.8 4 Sudoeste 9 Sudoeste 0 -- -- 100
2019-06-22 06:00:00 8.8 6 Oeste 9 Sudoeste 0 -- -- 100
2019-06-22 05:00:00 9.3 6 Oeste 10 Sudoeste 0 -- -- 100
2019-06-22 04:00:00 9.5 5 Sudoeste 9 Sudoeste 0 -- -- 99
2019-06-22 03:00:00 10.1 3 Sudoeste 9 Oeste 0 -- -- 98
2019-06-22 02:00:00 10.6 5 Sudoeste 7 Sudoeste 0 -- -- 98
2019-06-22 01:00:00 11.5 4 Sudoeste 8 Oeste 0 -- -- 97
2019-06-22 00:00:00 12.3 3 Sur 8 Oeste 0 -- -- 94
2019-06-21 23:00:00 13.9 3 Este 6 Nordeste 0 -- -- 91
2019-06-21 22:00:00 14.7 4 Norte 12 Norte 0 -- -- 85
2019-06-21 21:00:00 16.8 10 Norte 15 Norte 0 -- -- 78
2019-06-21 20:00:00 18.9 9 Norte 18 Norte 0 -- -- 69
2019-06-21 19:00:00 18.5 10 Nordeste 18 Norte 0 -- -- 74
2019-06-21 18:00:00 19.3 11 Nordeste 25 Nordeste 0 -- -- 74
2019-06-21 17:00:00 19.6 13 Nordeste 24 Norte 0 -- -- 72
2019-06-21 16:00:00 19.5 13 Nordeste 26 Nordeste 0 -- -- 77
2019-06-21 15:00:00 19.2 12 Nordeste 22 Este 0 -- -- 73
2019-06-21 14:00:00 19.5 9 Norte 16 Norte 0 -- -- 78
2019-06-21 13:00:00 18.9 7 Nordeste 15 Norte 0 -- -- 76
2019-06-21 12:00:00 19.3 8 Nordeste 16 Nordeste 0 -- -- 74
2019-06-21 11:00:00 18.5 4 Norte 13 Nordeste 0 -- -- 79
2019-06-21 10:00:00 16 4 Norte 9 Norte 0 -- -- 94
2019-06-21 09:00:00 14.8 0 Calma 3 Noroeste 0.2 -- -- 100
2019-06-21 08:00:00 14.1 2 Nordeste 7 Noroeste 2 -- -- 99
2019-06-21 07:00:00 14.1 4 Oeste 5 Oeste 2.6 -- -- 99
2019-06-21 06:00:00 14.2 0 Calma 5 Norte 0 -- -- 98
2019-06-21 05:00:00 14.5 2 Nordeste 5 Norte 1.6 -- -- 97
2019-06-21 04:00:00 14.9 0 Calma 8 Norte 1.8 -- -- 96
2019-06-21 03:00:00 15.1 6 Norte 11 Norte 0 -- -- 94
2019-06-21 02:00:00 15.6 3 Nordeste 12 Este 0.4 -- -- 92
2019-06-21 01:00:00 16.4 6 Nordeste 20 Este 0 -- -- 87
2019-06-21 00:00:00 16.6 8 Nordeste 15 Este 0 -- -- 87
2019-06-20 23:00:00 16.8 6 Nordeste 14 Nordeste 0 -- -- 87
2019-06-20 22:00:00 17.1 8 Nordeste 15 Este 0 -- -- 87
2019-06-20 21:00:00 17.5 6 Este 13 Nordeste 0 -- -- 83
2019-06-20 20:00:00 18.4 5 Nordeste 13 Nordeste 0 -- -- 82
2019-06-20 19:00:00 19.1 8 Nordeste 23 Nordeste 0 -- -- 77
2019-06-20 18:00:00 19.9 10 Nordeste 20 Este 0 -- -- 75
2019-06-20 17:00:00 19.1 9 Este 17 Este 0 -- -- 81
2019-06-20 16:00:00 19.5 9 Este 18 Este 0 -- -- 79
2019-06-20 15:00:00 19.4 9 Este 17 Nordeste 0 -- -- 79
2019-06-20 14:00:00 18.9 6 Este 14 Este 0 -- -- 81
2019-06-20 13:00:00 18.7 4 Nordeste 15 Este 0 -- -- 82
2019-06-20 12:00:00 18.9 5 Este 11 Norte 0 -- -- 78
2019-06-20 11:00:00 18.7 4 Nordeste 7 Este 0 -- -- 87
2019-06-20 10:00:00 16.9 0 Calma 6 Norte 0 -- -- 93
2019-06-20 09:00:00 16 4 Norte 9 Norte 0 -- -- 98
2019-06-20 08:00:00 15.6 5 Nordeste 13 Este 0.2 -- -- 98
2019-06-20 07:00:00 15.7 7 Nordeste 14 Norte 0.4 -- -- 97
2019-06-20 06:00:00 16.3 3 Sur 5 Sudoeste 0 -- -- 94
2019-06-20 05:00:00 16.5 2 Sudoeste 4 Sudoeste 0 -- -- 92
2019-06-20 04:00:00 16.8 0 Calma 3 Este 0 -- -- 90
2019-06-20 03:00:00 16.9 0 Calma 5 Oeste 0 -- -- 92
2019-06-20 02:00:00 17.1 4 Sur 5 Sudoeste 0 -- -- 90
2019-06-20 01:00:00 17.3 0 Calma 7 Sudoeste 0 -- -- 89
2019-06-20 00:00:00 17.5 5 Sudoeste 8 Sudoeste 0 -- -- 87
2019-06-19 23:00:00 17.9 3 Este 13 Nordeste 0 -- -- 84
2019-06-19 22:00:00 18.2 4 Nordeste 17 Nordeste 0 -- -- 86
2019-06-19 21:00:00 18.8 7 Nordeste 16 Nordeste 0 -- -- 83
2019-06-19 20:00:00 19.6 6 Este 14 Este 0 -- -- 78
2019-06-19 19:00:00 19.8 6 Nordeste 22 Este 0 -- -- 75
2019-06-19 18:00:00 20.4 12 Este 26 Este 0 -- -- 74
2019-06-19 17:00:00 22 15 Este 27 Este 0 -- -- 70
2019-06-19 16:00:00 21.3 17 Este 28 Este 0 -- -- 71
2019-06-19 15:00:00 21.8 15 Este -- -- -- -- -- 69
2019-06-19 14:00:00 -- -- -- -- -- -- -- -- --
2019-06-19 13:00:00 22.3 9 Este 24 Este 0 -- -- 64
2019-06-19 12:00:00 22.4 13 Norte 22 Norte 0 -- -- 70
2019-06-19 11:00:00 23.7 7 Nordeste 14 Nordeste 0 -- -- 71
2019-06-19 10:00:00 20.5 3 Este 6 Este 0 -- -- 78
2019-06-19 09:00:00 15.9 0 Calma 8 Oeste 0 -- -- 98
2019-06-19 08:00:00 13.6 2 Sudoeste 4 Sur 0 -- -- 100
2019-06-19 07:00:00 12.5 0 Calma 8 Sudoeste 0 -- -- 99
2019-06-19 06:00:00 12.5 2 Este 10 Noroeste 0 -- -- 99
2019-06-19 05:00:00 13.1 0 Calma 6 Sur 0 -- -- 99
2019-06-19 04:00:00 13.5 2 Oeste 10 Sudoeste 0 -- -- 98
2019-06-19 03:00:00 13.8 6 Sudoeste 14 Sudoeste 0 -- -- 97
2019-06-19 02:00:00 14.5 9 Sudoeste 15 Oeste 0 -- -- 96
2019-06-19 01:00:00 15.2 10 Oeste 14 Oeste 0 -- -- 95
2019-06-19 00:00:00 15.7 8 Sudoeste 14 Sudoeste 0 -- -- 94
2019-06-18 23:00:00 16.4 8 Sudoeste 13 Sudoeste 0 -- -- 91
2019-06-18 22:00:00 16.9 9 Sudoeste 22 Oeste 0 -- -- 88
2019-06-18 21:00:00 18.3 12 Sudoeste 23 Sudoeste 0 -- -- 83
2019-06-18 20:00:00 20.2 12 Noroeste 30 Noroeste 0 -- -- 78
2019-06-18 19:00:00 22.3 15 Noroeste 30 Noroeste 0 -- -- 72
2019-06-18 18:00:00 25.7 14 Norte 26 Norte 0 -- -- 65
2019-06-18 17:00:00 27.3 17 Nordeste 36 Norte 0 -- -- 59
2019-06-18 16:00:00 32.6 7 Norte 31 Noroeste 0 -- -- 45
2019-06-18 15:00:00 32.8 16 Oeste 32 Oeste 0 -- -- 29
2019-06-18 14:00:00 27 7 Nordeste 20 Nordeste 0 -- -- 67
2019-06-18 13:00:00 25.6 9 Nordeste 16 Nordeste 0 -- -- 70
2019-06-18 12:00:00 25.6 4 Nordeste 15 Nordeste 0 -- -- 75
2019-06-18 11:00:00 22.4 6 Nordeste 11 Norte 0 -- -- 79
2019-06-18 10:00:00 20.6 3 Sudoeste 8 Sudoeste 0 -- -- 82
2019-06-18 09:00:00 18.4 4 Sudoeste 9 Sudoeste 0 -- -- 89
2019-06-18 08:00:00 15.1 4 Sudoeste 10 Sudoeste 0 -- -- 99
2019-06-18 07:00:00 13.5 4 Sudoeste 9 Sudoeste 0 -- -- 99
2019-06-18 06:00:00 14 0 Calma 6 Sudeste 0 -- -- 98
2019-06-18 05:00:00 14.8 4 Sudoeste 7 Oeste 0 -- -- 96
2019-06-18 04:00:00 15.7 7 Oeste 16 Sudoeste 0 -- -- 94
2019-06-18 03:00:00 16 5 Sur 15 Oeste 0 -- -- 93
2019-06-18 02:00:00 16 5 Sudoeste 13 Sudoeste 0 -- -- 92
2019-06-18 01:00:00 16.5 5 Sudoeste 16 Oeste 0 -- -- 89
2019-06-18 00:00:00 16.3 4 Sur 12 Sudoeste 0 -- -- 89
2019-06-17 23:00:00 17 6 Sudoeste 13 Sudoeste 0 -- -- 87
2019-06-17 22:00:00 17.7 7 Sudoeste 12 Oeste 0 -- -- 87
2019-06-17 21:00:00 18.1 9 Noroeste 24 Noroeste 0 -- -- 87
2019-06-17 20:00:00 19.8 0 Calma 21 Nordeste 0 -- -- 86
2019-06-17 19:00:00 19.5 18 Norte 38 Nordeste 0 -- -- 85
2019-06-17 18:00:00 22 18 Nordeste 34 Nordeste 0 -- -- 77
2019-06-17 17:00:00 23.8 15 Nordeste 29 Nordeste 0 -- -- 72
2019-06-17 16:00:00 24.2 17 Nordeste 30 Nordeste 0 -- -- 71
2019-06-17 15:00:00 24.7 13 Nordeste 24 Nordeste 0 -- -- 72
2019-06-17 14:00:00 24.7 11 Nordeste 23 Nordeste 0 -- -- 72
2019-06-17 13:00:00 24.3 10 Nordeste 18 Nordeste 0 -- -- 71
2019-06-17 12:00:00 23.6 9 Nordeste 16 Nordeste 0 -- -- 72
2019-06-17 11:00:00 21.8 8 Nordeste 13 Norte 0 -- -- 75
2019-06-17 10:00:00 19.8 0 Calma 8 Noroeste 0 -- -- 80
2019-06-17 09:00:00 18.5 3 Sudoeste 7 Sur 0 -- -- 83
2019-06-17 08:00:00 16 3 Sudoeste 6 Sudoeste 0 -- -- 92
2019-06-17 07:00:00 15.3 3 Sudoeste 10 Sudoeste 0 -- -- 91
2019-06-17 06:00:00 15.6 3 Sudoeste 14 Oeste 0 -- -- 92
2019-06-17 05:00:00 15.6 6 Sudoeste 14 Sudoeste 0 -- -- 92
2019-06-17 04:00:00 15.6 8 Sudoeste 14 Sudoeste 0 -- -- 93
2019-06-17 03:00:00 15.4 6 Sudoeste 15 Sudoeste 0 -- -- 96
2019-06-17 02:00:00 14.9 7 Sudoeste 12 Sudoeste 0 -- -- 96
2019-06-17 01:00:00 15 8 Sudoeste 12 Sudoeste 0 -- -- 95
2019-06-17 00:00:00 15.6 7 Sudoeste 11 Sudoeste 0 -- -- 93
2019-06-16 23:00:00 16.3 0 Calma 10 Nordeste 0 -- -- 90
2019-06-16 22:00:00 17.3 7 Nordeste 17 Nordeste 0 -- -- 86
2019-06-16 21:00:00 18.8 11 Norte 22 Norte 0 -- -- 80
2019-06-16 20:00:00 20.9 10 Nordeste 23 Norte 0 -- -- 72
2019-06-16 19:00:00 22 11 Nordeste 29 Nordeste 0 -- -- 69
2019-06-16 18:00:00 22.3 12 Nordeste 28 Sudeste 0 -- -- 69
2019-06-16 17:00:00 22.2 14 Este 28 Este 0 -- -- 70
2019-06-16 16:00:00 22 14 Este 29 Este 0 -- -- 70
2019-06-16 15:00:00 22.1 13 Este 25 Nordeste 0 -- -- 71
2019-06-16 14:00:00 20.8 14 Este 28 Este 0 -- -- 74
2019-06-16 13:00:00 21 13 Este 27 Este 0 -- -- 75
2019-06-16 12:00:00 20.5 12 Este 22 Este 0 -- -- 71
2019-06-16 11:00:00 19.5 11 Este 21 Este 0 -- -- 73
2019-06-16 10:00:00 17.1 3 Norte 6 Norte 0 -- -- 83
2019-06-16 09:00:00 13.7 2 Este 7 Sudoeste 0 -- -- 91
2019-06-16 08:00:00 10 4 Sudoeste 8 Sudoeste 0 -- -- 100
2019-06-16 07:00:00 8 4 Sudoeste 9 Sudoeste 0 -- -- 99
2019-06-16 06:00:00 8.2 5 Sudoeste 6 Sudoeste 0 -- -- 98
2019-06-16 05:00:00 8.7 5 Sudoeste 9 Sudoeste 0 -- -- 98
2019-06-16 04:00:00 9.2 5 Sudoeste 9 Oeste 0 -- -- 97
2019-06-16 03:00:00 9.7 4 Sudoeste 7 Sudoeste 0 -- -- 96
2019-06-16 02:00:00 10.5 5 Sudoeste 6 Sudoeste 0 -- -- 93
2019-06-16 01:00:00 11.2 4 Sudoeste 8 Sudoeste 0 -- -- 92
2019-06-16 00:00:00 12.1 5 Oeste 7 Oeste 0 -- -- 91
2019-06-15 23:00:00 13.6 3 Nordeste 5 Nordeste 0 -- -- 87
2019-06-15 22:00:00 15 3 Nordeste 9 Este 0 -- -- 79
2019-06-15 21:00:00 16.7 6 Este 17 Este 0 -- -- 71
2019-06-15 20:00:00 18 10 Este 18 Este 0 -- -- 66
2019-06-15 19:00:00 19.9 8 Nordeste 21 Norte 0 -- -- 63
2019-06-15 18:00:00 19.8 10 Este 23 Este 0 -- -- 60
2019-06-15 17:00:00 20.5 10 Este 22 Nordeste 0 -- -- 57
2019-06-15 16:00:00 21.4 13 Nordeste 24 Nordeste 0 -- -- 58
2019-06-15 15:00:00 21.2 13 Nordeste 26 Nordeste 0 -- -- 58
2019-06-15 14:00:00 20.4 11 Nordeste 23 Norte 0 -- -- 65
2019-06-15 13:00:00 19.8 8 Nordeste 15 Este 0 -- -- 66
2019-06-15 12:00:00 20.3 8 Sudeste 17 Sur 0 -- -- 61
2019-06-15 11:00:00 19 6 Sudeste 15 Sudeste 0 -- -- 68
2019-06-15 10:00:00 17 6 Sudoeste 13 Sudoeste 0 -- -- 80
2019-06-15 09:00:00 14.5 5 Sudoeste 12 Sudoeste 0 -- -- 96
2019-06-15 08:00:00 12 7 Sudoeste 12 Sudoeste 0 -- -- 100
2019-06-15 07:00:00 10.9 5 Sudoeste 9 Oeste 0 -- -- 100
2019-06-15 06:00:00 11.1 5 Oeste 9 Sudoeste 0 -- -- 100
2019-06-15 05:00:00 11.4 5 Sudoeste 9 Sudoeste 0 -- -- 100
2019-06-15 04:00:00 11.8 2 Oeste 5 Sudeste 0 -- -- 100
2019-06-15 03:00:00 12.4 2 Sudoeste 4 Sur 0 -- -- 99
2019-06-15 02:00:00 13 0 Calma 6 Oeste 0 -- -- 99
2019-06-15 01:00:00 13.2 3 Sudoeste 5 Oeste 0 -- -- 98
2019-06-15 00:00:00 13.3 0 Calma 6 Sudoeste 0 -- -- 98
2019-06-14 23:00:00 13.5 0 Calma 8 Sudoeste 0 -- -- 98
2019-06-14 22:00:00 13.9 3 Sudoeste 5 Sudoeste 0 -- -- 97
2019-06-14 21:00:00 14.2 0 Calma 7 Norte 0 -- -- 97
2019-06-14 20:00:00 14.2 4 Nordeste 16 Nordeste 0 -- -- 97
2019-06-14 19:00:00 14.4 10 Nordeste 21 Norte 0.4 -- -- 97
2019-06-14 18:00:00 15.1 12 Norte 20 Nordeste 0 -- -- 94
2019-06-14 17:00:00 16.5 13 Nordeste 22 Nordeste 0 -- -- 88
2019-06-14 16:00:00 16.1 7 Nordeste 14 Norte 0 -- -- 83
2019-06-14 15:00:00 16 7 Este 14 Este 0 -- -- 83
2019-06-14 14:00:00 15.9 10 Este 14 Este 0 -- -- 83
2019-06-14 13:00:00 15.7 5 Este 13 Nordeste 0 -- -- 86
2019-06-14 12:00:00 15.4 4 Norte 11 Norte 0 -- -- 90
2019-06-14 11:00:00 13.7 0 Calma 3 Este 0 -- -- 100
2019-06-14 10:00:00 12.6 0 Calma 5 Sudoeste 0 -- -- 100
2019-06-14 09:00:00 11.6 2 Sudoeste 5 Sur 0 -- -- 100
2019-06-14 08:00:00 11 2 Sudoeste 5 Sur 0 -- -- 100
2019-06-14 07:00:00 10.9 3 Oeste 4 Oeste 0 -- -- 100
2019-06-14 06:00:00 10.9 0 Calma 4 Sudoeste 0 -- -- 99
2019-06-14 05:00:00 11.4 0 Calma 4 Oeste 0 -- -- 99
2019-06-14 04:00:00 12.1 0 Calma 4 Sur 0 -- -- 98
2019-06-14 03:00:00 12.4 3 Oeste 4 Sudoeste 0 -- -- 98
2019-06-14 02:00:00 12.8 3 Sur 5 Sudoeste 0 -- -- 97
2019-06-14 01:00:00 13.1 2 Sudoeste 4 Sur 0 -- -- 97
2019-06-14 00:00:00 13.2 3 Sudoeste 9 Sudoeste 0 -- -- 96
2019-06-13 23:00:00 13.3 4 Sudoeste 8 Sudoeste 0 -- -- 96
2019-06-13 22:00:00 14 3 Este 14 Norte 0 -- -- 91
2019-06-13 21:00:00 15 3 Nordeste 12 Nordeste 0 -- -- 84
2019-06-13 20:00:00 15.4 6 Nordeste 15 Nordeste 0 -- -- 84
2019-06-13 19:00:00 15.9 7 Nordeste 20 Norte 0 -- -- 81
2019-06-13 18:00:00 16.3 7 Nordeste 19 Este 0 -- -- 78
2019-06-13 17:00:00 16.1 11 Este 26 Este 0 -- -- 78
2019-06-13 16:00:00 16.8 12 Este 24 Este 0 -- -- 76
2019-06-13 15:00:00 17.8 14 Este 27 Este 0 -- -- 72
2019-06-13 14:00:00 18.2 15 Este 30 Este 0 -- -- 74
2019-06-13 13:00:00 18.4 11 Este 18 Este 0 -- -- 73
2019-06-13 12:00:00 17.3 10 Este 21 Sudeste 0 -- -- 76
2019-06-13 11:00:00 17.4 6 Nordeste 14 Nordeste 0 -- -- 77
2019-06-13 10:00:00 15.5 3 Nordeste 8 Nordeste 0 -- -- 83
2019-06-13 09:00:00 12.6 0 Calma 7 Sur 0 -- -- 92
2019-06-13 08:00:00 9.3 2 Sudoeste 8 Sudoeste 0 -- -- 100
2019-06-13 07:00:00 8.1 5 Oeste 8 Oeste 0 -- -- 99
2019-06-13 06:00:00 8.6 4 Sudoeste 8 Sudoeste 0 -- -- 99
2019-06-13 05:00:00 8.7 4 Sudoeste 6 Oeste 0 -- -- 99
2019-06-13 04:00:00 9 4 Oeste 7 Sudoeste 0 -- -- 98
2019-06-13 03:00:00 9.5 4 Oeste 7 Oeste 0 -- -- 96
2019-06-13 02:00:00 10.2 3 Oeste 5 Oeste 0 -- -- 96
2019-06-13 01:00:00 10.7 2 Sudoeste 5 Sudoeste 0 -- -- 94
2019-06-13 00:00:00 11.4 5 Oeste 8 Oeste 0 -- -- 90
2019-06-12 23:00:00 12.5 4 Sur 6 Sur 0 -- -- 85
2019-06-12 22:00:00 13.9 2 Norte 14 Nordeste 0 -- -- 79
2019-06-12 21:00:00 15.4 7 Nordeste 17 Nordeste 0 -- -- 75
2019-06-12 20:00:00 16.2 9 Nordeste 23 Nordeste 0 -- -- 70
2019-06-12 19:00:00 17.7 10 Nordeste 27 Nordeste 0 -- -- 66
2019-06-12 18:00:00 18 14 Nordeste 32 Nordeste 0 -- -- 65
2019-06-12 17:00:00 19.3 12 Nordeste 28 Norte 0 -- -- 64
2019-06-12 16:00:00 18 11 Nordeste 30 Nordeste 0 -- -- 66
2019-06-12 15:00:00 18.7 11 Nordeste 23 Norte 0 -- -- 63
2019-06-12 14:00:00 18.5 7 Nordeste 23 Noroeste 0 -- -- 63
2019-06-12 13:00:00 17.4 12 Oeste 27 Noroeste 0 -- -- 65
2019-06-12 12:00:00 15.2 6 Noroeste 22 Sudoeste 0 -- -- 61
2019-06-12 11:00:00 15 5 Noroeste 23 Oeste 0 -- -- 64
2019-06-12 10:00:00 13.7 4 Sur 19 Oeste 0 -- -- 67
2019-06-12 09:00:00 13.1 7 Oeste 20 Sudoeste 0 -- -- 67
2019-06-12 08:00:00 12.5 13 Oeste 23 Oeste 0.2 -- -- 68
2019-06-12 07:00:00 12.1 9 Sudoeste 19 Sudoeste 0 -- -- 70
2019-06-12 06:00:00 11.5 9 Sudoeste 20 Sudoeste 0 -- -- 75
2019-06-12 05:00:00 11.7 9 Sudoeste 19 Sudoeste 0 -- -- 75
2019-06-12 04:00:00 12.4 9 Oeste 26 Oeste 0 -- -- 74
2019-06-12 03:00:00 12.6 8 Sudoeste 16 Oeste 0 -- -- 73
2019-06-12 02:00:00 13 8 Sudoeste 21 Oeste 0 -- -- 75
2019-06-12 01:00:00 12.9 8 Sudoeste 23 Sudoeste 0 -- -- 77
2019-06-12 00:00:00 12.9 9 Sudoeste 19 Sudoeste 0 -- -- 79
2019-06-11 23:00:00 13.1 7 Sudoeste 19 Oeste 0 -- -- 81
2019-06-11 22:00:00 13.6 13 Oeste 33 Norte 0 -- -- 78
2019-06-11 21:00:00 14.3 12 Norte 33 Norte 0 -- -- 76
2019-06-11 20:00:00 15.1 12 Norte 38 Noroeste 0 -- -- 73
2019-06-11 19:00:00 16 12 Norte 38 Norte 0 -- -- 71
2019-06-11 18:00:00 14.8 12 Norte 38 Norte 0.2 -- -- 75
2019-06-11 17:00:00 14.8 10 Norte 32 Norte 0.2 -- -- 80
2019-06-11 16:00:00 15.2 18 Norte 34 Norte 1.6 -- -- 76
2019-06-11 15:00:00 15.1 9 Nordeste 42 Norte 0.2 -- -- 82
2019-06-11 14:00:00 14.7 12 Noroeste 30 Oeste 0.4 -- -- 82
2019-06-11 13:00:00 14.5 8 Noroeste 24 Noroeste 0.2 -- -- 84
2019-06-11 12:00:00 12.8 6 Norte 32 Noroeste 0.6 -- -- 90
2019-06-11 11:00:00 13.7 12 Noroeste 26 Noroeste 0.6 -- -- 86
2019-06-11 10:00:00 12.9 9 Oeste 27 Oeste 1 -- -- 91
2019-06-11 09:00:00 11.7 15 Noroeste 31 Noroeste 1.2 -- -- 89
2019-06-11 08:00:00 11.8 11 Noroeste 23 Noroeste 0.6 -- -- 96
2019-06-11 07:00:00 10.5 3 Sudoeste 11 Oeste 1 -- -- 99
2019-06-11 06:00:00 10.6 4 Sudoeste 10 Sudoeste 3.2 -- -- 98
2019-06-11 05:00:00 10.9 5 Sudoeste 18 Oeste 0.8 -- -- 97
2019-06-11 04:00:00 10.9 6 Sudoeste 18 Sudoeste 0.2 -- -- 98
2019-06-11 03:00:00 11.2 6 Sudoeste 9 Oeste 1.8 -- -- 97
2019-06-11 02:00:00 11.6 4 Sur 20 Norte 0 -- -- 96
2019-06-11 01:00:00 11.7 6 Oeste 13 Oeste 0.2 -- -- 97
2019-06-11 00:00:00 12 3 Sudoeste 8 Sudoeste 0.4 -- -- 97
2019-06-10 23:00:00 12.4 5 Sudoeste 9 Sudoeste 0.2 -- -- 94
2019-06-10 22:00:00 13.3 4 Sudoeste 7 Sudoeste 0 -- -- 88
2019-06-10 21:00:00 14.1 4 Oeste 6 Oeste 0 -- -- 83
2019-06-10 20:00:00 14.6 3 Nordeste 13 Norte 0 -- -- 78
2019-06-10 19:00:00 14.9 4 Este 17 Nordeste 0 -- -- 76
2019-06-10 18:00:00 15.8 6 Nordeste 21 Nordeste 0 -- -- 72
2019-06-10 17:00:00 15.6 9 Nordeste 24 Nordeste 0 -- -- 73
2019-06-10 16:00:00 17.4 11 Nordeste 24 Nordeste 0 -- -- 66
2019-06-10 15:00:00 17.5 8 Nordeste 17 Norte 0 -- -- 71
2019-06-10 14:00:00 15.7 6 Nordeste 17 Nordeste 0 -- -- 77
2019-06-10 13:00:00 16.7 8 Norte 15 Norte 0 -- -- 74
2019-06-10 12:00:00 17.1 9 Noroeste 16 Noroeste 0 -- -- 73
2019-06-10 11:00:00 16.2 6 Este 13 Nordeste 0 -- -- 72
2019-06-10 10:00:00 15.3 3 Norte 6 Este 0 -- -- 87
2019-06-10 09:00:00 11.9 0 Calma 5 Este 0 -- -- 100
2019-06-10 08:00:00 11.2 3 Oeste 5 Sudoeste 0 -- -- 100
2019-06-10 07:00:00 10.9 0 Calma 4 Oeste 0 -- -- 100
2019-06-10 06:00:00 11.1 2 Sur 6 Sudoeste 0 -- -- 100
2019-06-10 05:00:00 10.9 4 Sudoeste 6 Oeste 0 -- -- 99
2019-06-10 04:00:00 11.1 0 Calma 7 Oeste 0 -- -- 99
2019-06-10 03:00:00 11.5 3 Sudoeste 6 Oeste 0 -- -- 98
2019-06-10 02:00:00 12.3 5 Oeste 7 Oeste 0.4 -- -- 97
2019-06-10 01:00:00 12.8 7 Norte 16 Norte 0 -- -- 94
2019-06-10 00:00:00 13.2 2 Sudoeste 6 Oeste 0 -- -- 96
2019-06-09 23:00:00 13.2 0 Calma 11 Norte 0 -- -- 95
2019-06-09 22:00:00 13.3 8 Norte 15 Norte 0 -- -- 95
2019-06-09 21:00:00 13.5 9 Norte 21 Norte 0.2 -- -- 96
2019-06-09 20:00:00 13.8 9 Nordeste 29 Nordeste 0.2 -- -- 97
2019-06-09 19:00:00 14.4 12 Nordeste 26 Nordeste 0.6 -- -- 96
2019-06-09 18:00:00 14.9 15 Nordeste 28 Nordeste 0.4 -- -- 95
2019-06-09 17:00:00 15.8 8 Nordeste 26 Nordeste 0.2 -- -- 92
2019-06-09 16:00:00 18 9 Norte 29 Noroeste 0 -- -- 78
2019-06-09 15:00:00 18.1 15 Norte 31 Norte 0 -- -- 78
2019-06-09 14:00:00 19.2 17 Norte 30 Noroeste 0 -- -- 77
2019-06-09 13:00:00 19.3 12 Noroeste 22 Noroeste 0 -- -- 76
2019-06-09 12:00:00 20 7 Norte 16 Noroeste 0 -- -- 73
2019-06-09 11:00:00 18.4 9 Oeste 18 Noroeste 0 -- -- 76
2019-06-09 10:00:00 16.6 5 Sur 12 Sur 0 -- -- 86
2019-06-09 09:00:00 14.9 2 Sur 6 Sudoeste 0 -- -- 91
2019-06-09 08:00:00 14.4 3 Sudoeste 8 Sur 0 -- -- 93
2019-06-09 07:00:00 13.6 5 Sudoeste 10 Sudoeste 0 -- -- 94
2019-06-09 06:00:00 13.6 5 Sudoeste 6 Sudoeste 0 -- -- 94
2019-06-09 05:00:00 13.6 6 Sudoeste 9 Sur 0 -- -- 94
2019-06-09 04:00:00 14 0 Calma 7 Norte 0 -- -- 91
2019-06-09 03:00:00 13.9 5 Oeste 6 Oeste 0 -- -- 89
2019-06-09 02:00:00 14 4 Oeste 8 Sudoeste 0 -- -- 91
2019-06-09 01:00:00 14.1 4 Sudoeste 7 Sudoeste 0 -- -- 88
2019-06-09 00:00:00 14.3 0 Calma 6 Nordeste 0 -- -- 87
2019-06-08 23:00:00 14.7 4 Norte 9 Nordeste 0 -- -- 84
2019-06-08 22:00:00 15 5 Nordeste 10 Nordeste 0 -- -- 81
2019-06-08 21:00:00 15.4 5 Nordeste 15 Este 0 -- -- 80
2019-06-08 20:00:00 16.2 7 Nordeste 18 Nordeste 0 -- -- 76
2019-06-08 19:00:00 16.5 9 Este 19 Este 0 -- -- 75
2019-06-08 18:00:00 17 9 Este 23 Este 0 -- -- 73
2019-06-08 17:00:00 17.2 12 Este 28 Sudeste 0 -- -- 71
2019-06-08 16:00:00 18 17 Este 31 Este 0 -- -- 67
2019-06-08 15:00:00 18.7 13 Este 32 Sudeste 0 -- -- 67
2019-06-08 14:00:00 18.3 17 Este 30 Este 0 -- -- 65
2019-06-08 13:00:00 18.4 15 Este 29 Este 0 -- -- 62
2019-06-08 12:00:00 17.5 15 Este 23 Este 0 -- -- 63
2019-06-08 11:00:00 17 9 Este 14 Este 0 -- -- 69
2019-06-08 10:00:00 15.5 2 Norte 7 Sudoeste 0 -- -- 76
2019-06-08 09:00:00 12.5 3 Sudoeste 7 Sudoeste 0 -- -- 87
2019-06-08 08:00:00 9.6 0 Calma 10 Sudoeste 0 -- -- 97
2019-06-08 07:00:00 8 6 Sudoeste 9 Oeste 0 -- -- 97
2019-06-08 06:00:00 8.3 4 Oeste 9 Sudoeste 0 -- -- 95
2019-06-08 05:00:00 9.1 5 Sudoeste 8 Sudoeste 0 -- -- 95
2019-06-08 04:00:00 10 5 Sudoeste 8 Sudoeste 0 -- -- 92
2019-06-08 03:00:00 10.6 0 Calma 3 Oeste 0 -- -- 90
2019-06-08 02:00:00 10.8 3 Sur 9 Sudoeste 0 -- -- 90
2019-06-08 01:00:00 11.1 7 Sudoeste 10 Sudoeste 0 -- -- 87
2019-06-08 00:00:00 11.7 4 Sudoeste 10 Sudoeste 0 -- -- 84
2019-06-07 23:00:00 13.1 0 Calma 5 Sur 0 -- -- 77
2019-06-07 22:00:00 14.4 0 Calma 12 Norte 0 -- -- 70
2019-06-07 21:00:00 15.3 10 Norte 19 Nordeste 0 -- -- 65
2019-06-07 20:00:00 16.2 5 Nordeste 23 Nordeste 0 -- -- 62
2019-06-07 19:00:00 16.6 13 Nordeste 32 Norte 0 -- -- 61
2019-06-07 18:00:00 16.9 13 Nordeste 39 Nordeste 0 -- -- 59
2019-06-07 17:00:00 18.4 15 Nordeste 46 Norte 0 -- -- 53
2019-06-07 16:00:00 19.1 24 Nordeste 49 Norte 0 -- -- 52
2019-06-07 15:00:00 19 19 Nordeste 54 Norte 0 -- -- 54
2019-06-07 14:00:00 20.2 16 Norte 45 Norte 0 -- -- 49
2019-06-07 13:00:00 19.7 13 Norte 39 Noroeste 0 -- -- 51
2019-06-07 12:00:00 19.7 10 Norte 26 Norte 0 -- -- 54
2019-06-07 11:00:00 17.2 12 Noroeste 30 Oeste 0 -- -- 53
2019-06-07 10:00:00 17.8 15 Oeste 41 Oeste 0 -- -- 53
2019-06-07 09:00:00 16.6 22 Oeste 41 Oeste 0 -- -- 52
2019-06-07 08:00:00 15.5 18 Oeste 34 Oeste 0 -- -- 54
2019-06-07 07:00:00 14.4 13 Oeste 37 Oeste 0 -- -- 55
2019-06-07 06:00:00 13.7 10 Sudoeste 30 Sudoeste 0 -- -- 60
2019-06-07 05:00:00 14.2 21 Sudoeste 33 Oeste 0 -- -- 61
2019-06-07 04:00:00 15.1 15 Oeste 39 Oeste 0 -- -- 59
2019-06-07 03:00:00 16.2 18 Sudoeste 59 Sudoeste 0 -- -- 54
2019-06-07 02:00:00 17.6 22 Oeste 80 Norte 0 -- -- 53
2019-06-07 01:00:00 21.9 31 Oeste 71 Oeste 0 -- -- 47
2019-06-07 00:00:00 21.3 9 Sudoeste 51 Oeste 0 -- -- 48
2019-06-06 23:00:00 23.1 30 Noroeste 51 Oeste 0 -- -- 43
2019-06-06 22:00:00 23.3 11 Sudoeste 21 Oeste 0 -- -- 35
2019-06-06 21:00:00 20.2 12 Sudoeste 18 Oeste 0 -- -- 61
2019-06-06 20:00:00 20.1 0 Calma 17 Nordeste 0 -- -- 79
2019-06-06 19:00:00 20.2 10 Norte 25 Norte 0 -- -- 76
2019-06-06 18:00:00 20.9 15 Norte 27 Norte 0 -- -- 72
2019-06-06 17:00:00 21.8 9 Nordeste 21 Norte 0 -- -- 69
2019-06-06 16:00:00 21.4 9 Nordeste 19 Nordeste 0 -- -- 69
2019-06-06 15:00:00 20.5 13 Este 30 Este 0 -- -- 67
2019-06-06 14:00:00 20.3 17 Este 28 Este 0 -- -- 70
2019-06-06 13:00:00 19.8 12 Este 24 Este 0 -- -- 67
2019-06-06 12:00:00 19.7 5 Este 12 Sudeste 0 -- -- 62
2019-06-06 11:00:00 17.8 7 Sudeste 12 Sudeste 0 -- -- 60
2019-06-06 10:00:00 15.7 4 Sudoeste 9 Oeste 0 -- -- 76
2019-06-06 09:00:00 13 3 Oeste 8 Sur 0 -- -- 89
2019-06-06 08:00:00 9.9 4 Sudoeste 6 Sudoeste 0 -- -- 100
2019-06-06 07:00:00 9.5 4 Sudoeste 9 Sudoeste 0 -- -- 98
2019-06-06 06:00:00 9.7 4 Sudoeste 6 Sur 0 -- -- 98
2019-06-06 05:00:00 10 4 Sudoeste 7 Sur 0 -- -- 98
2019-06-06 04:00:00 10.2 5 Sudoeste 10 Sudoeste 0 -- -- 98
2019-06-06 03:00:00 10.5 5 Oeste 9 Oeste 0 -- -- 96
2019-06-06 02:00:00 11.1 3 Oeste 8 Oeste 0 -- -- 96
2019-06-06 01:00:00 11.3 6 Oeste 8 Sudoeste 0 -- -- 92
2019-06-06 00:00:00 11.7 5 Sudoeste 9 Sudoeste 0 -- -- 90
2019-06-05 23:00:00 12.4 6 Sudoeste 11 Oeste 0 -- -- 84
2019-06-05 22:00:00 13.2 3 Noroeste 11 Noroeste 0 -- -- 76
2019-06-05 21:00:00 14.1 5 Nordeste 17 Norte 0 -- -- 73
2019-06-05 20:00:00 15.2 8 Noroeste 23 Norte 0 -- -- 68
2019-06-05 19:00:00 16.8 17 Norte 34 Noroeste 0 -- -- 69
2019-06-05 18:00:00 17 10 Norte 27 Norte 0 -- -- 68
2019-06-05 17:00:00 15.9 13 Norte 27 Nordeste 0 -- -- 75
2019-06-05 16:00:00 15.8 15 Norte 31 Nordeste 0 -- -- 71
2019-06-05 15:00:00 15.7 12 Norte 45 Norte 0 -- -- 76
2019-06-05 14:00:00 15 10 Norte 23 Norte 0.4 -- -- 87
2019-06-05 13:00:00 13 5 Noroeste 32 Norte 5 -- -- 95
2019-06-05 12:00:00 13.1 5 Nordeste 24 Norte 3.2 -- -- 94
2019-06-05 11:00:00 13 10 Noroeste 30 Norte 1 -- -- 93
2019-06-05 10:00:00 12.1 4 Sur 12 Oeste 0.6 -- -- 99
2019-06-05 09:00:00 11.9 4 Sur 16 Oeste 1.4 -- -- 98
2019-06-05 08:00:00 11.9 7 Sudoeste 13 Norte 0.8 -- -- 97
2019-06-05 07:00:00 12.2 10 Noroeste 20 Noroeste 1.2 -- -- 95
2019-06-05 06:00:00 12.5 4 Norte 26 Norte 0.6 -- -- 96
2019-06-05 05:00:00 12.5 3 Sudoeste 15 Oeste 0 -- -- 99
2019-06-05 04:00:00 12.8 3 Sudoeste 7 Sudoeste 2.8 -- -- 99
2019-06-05 03:00:00 13.2 0 Calma 4 Sur 0 -- -- 99
2019-06-05 02:00:00 13.4 3 Norte 5 Norte 1 -- -- 98
2019-06-05 01:00:00 13.5 3 Oeste 8 Sur 0.6 -- -- 98
2019-06-05 00:00:00 13.9 3 Sudoeste 8 Sudoeste 1 -- -- 97
2019-06-04 23:00:00 14.1 4 Sur 13 Norte 0.8 -- -- 93
2019-06-04 22:00:00 15.2 11 Norte 21 Norte 0 -- -- 81
2019-06-04 21:00:00 15.9 6 Norte 17 Norte 0 -- -- 79
2019-06-04 20:00:00 16.3 11 Norte 21 Nordeste 0 -- -- 74
2019-06-04 19:00:00 16.3 4 Oeste 24 Nordeste 0 -- -- 70
2019-06-04 18:00:00 16.7 11 Nordeste 47 Norte 0 -- -- 77
2019-06-04 17:00:00 19.5 14 Norte 31 Nordeste 0 -- -- 74
2019-06-04 16:00:00 20.9 12 Nordeste 26 Norte 0 -- -- 71
2019-06-04 15:00:00 21.7 13 Nordeste 33 Norte 0 -- -- 72
2019-06-04 14:00:00 22 16 Nordeste 34 Norte 0 -- -- 67
2019-06-04 13:00:00 21.8 14 Nordeste 32 Este 0 -- -- 72
2019-06-04 12:00:00 22.7 14 Nordeste 28 Nordeste 0 -- -- 73
2019-06-04 11:00:00 23.5 6 Nordeste 13 Norte 0 -- -- 73
2019-06-04 10:00:00 21.4 4 Este 7 Este 0 -- -- 76
2019-06-04 09:00:00 18.3 0 Calma 8 Oeste 0 -- -- 88
2019-06-04 08:00:00 15.5 0 Calma 11 Oeste 0 -- -- 97
2019-06-04 07:00:00 14 3 Sudoeste 9 Sur 0 -- -- 98
2019-06-04 06:00:00 14.5 7 Sudoeste 10 Sudoeste 0 -- -- 97
2019-06-04 05:00:00 15.7 5 Sur 8 Sudoeste 0 -- -- 94
2019-06-04 04:00:00 16.7 3 Sudoeste 6 Sudoeste 0 -- -- 93
2019-06-04 03:00:00 17.2 0 Calma 4 Oeste 0 -- -- 93
2019-06-04 02:00:00 17.4 0 Calma 3 Sur 0 -- -- 92
2019-06-04 01:00:00 17.6 2 Sur 4 Sudoeste 0 -- -- 90
2019-06-04 00:00:00 17.8 3 Norte 9 Norte 0 -- -- 90
2019-06-03 23:00:00 17.9 7 Norte 13 Nordeste 0 -- -- 90
2019-06-03 22:00:00 18.1 5 Norte 10 Nordeste 0 -- -- 89
2019-06-03 21:00:00 18.6 6 Nordeste 21 Norte 0 -- -- 86
2019-06-03 20:00:00 20.1 14 Norte 24 Norte 0 -- -- 79
2019-06-03 19:00:00 22 13 Norte 27 Norte 0 -- -- 74
2019-06-03 18:00:00 22.5 14 Norte 27 Norte 0 -- -- 72
2019-06-03 17:00:00 23.1 13 Nordeste 26 Norte 0 -- -- 67
2019-06-03 16:00:00 23.8 11 Nordeste 25 Norte 0 -- -- 61
2019-06-03 15:00:00 23.6 13 Nordeste 24 Norte 0 -- -- 65
2019-06-03 14:00:00 23.3 12 Nordeste 25 Norte 0 -- -- 64
2019-06-03 13:00:00 21.9 12 Norte 25 Nordeste 0 -- -- 71
2019-06-03 12:00:00 22.1 10 Norte 19 Norte 0 -- -- 72
2019-06-03 11:00:00 20.8 6 Nordeste 11 Norte 0 -- -- 74
2019-06-03 10:00:00 18.1 0 Calma 8 Oeste 0 -- -- 86
2019-06-03 09:00:00 14.6 5 Oeste 10 Noroeste 0 -- -- 92
2019-06-03 08:00:00 13.4 2 Noroeste 6 Oeste 0 -- -- 97
2019-06-03 07:00:00 12.9 6 Oeste 8 Oeste 0 -- -- 96
2019-06-03 06:00:00 12.8 0 Calma 11 Oeste 0 -- -- 96
2019-06-03 05:00:00 13 8 Sudoeste 10 Sudoeste 0 -- -- 96
2019-06-03 04:00:00 13.5 2 Nordeste 7 Oeste 0 -- -- 93
2019-06-03 03:00:00 14 5 Oeste 7 Sudoeste 0 -- -- 92
2019-06-03 02:00:00 14.5 5 Sudoeste 8 Sudoeste 0 -- -- 92
2019-06-03 01:00:00 14.8 4 Sudoeste 7 Sudoeste 0 -- -- 91
2019-06-03 00:00:00 15.9 3 Oeste 6 Sudeste 0 -- -- 90
2019-06-02 23:00:00 17 4 Sudoeste 10 Sudoeste 0 -- -- 86
2019-06-02 22:00:00 18.5 0 Calma 8 Nordeste 0 -- -- 73
2019-06-02 21:00:00 20.1 4 Norte 13 Norte 0 -- -- 67
2019-06-02 20:00:00 22.1 9 Norte 20 Norte 0 -- -- 56
2019-06-02 19:00:00 23.7 8 Norte 14 Nordeste 0 -- -- 49
2019-06-02 18:00:00 23.9 6 Nordeste 20 Norte 0 -- -- 53
2019-06-02 17:00:00 22.5 13 Norte 24 Norte 0 -- -- 64
2019-06-02 16:00:00 24.3 18 Norte 31 Norte 0 -- -- 63
2019-06-02 15:00:00 24.5 20 Norte 36 Norte 0 -- -- 63
2019-06-02 14:00:00 25.6 18 Norte 31 Norte 0 -- -- 54
2019-06-02 13:00:00 26.4 14 Norte 23 Norte 0 -- -- 52
2019-06-02 12:00:00 25.3 12 Norte 23 Norte 0 -- -- 57
2019-06-02 11:00:00 26.3 5 Nordeste 9 Sur 0 -- -- 57
2019-06-02 10:00:00 23.4 4 Sur 10 Oeste 0 -- -- 63
2019-06-02 09:00:00 19.6 6 Sur 12 Sudoeste 0 -- -- 75
2019-06-02 08:00:00 16 5 Sudoeste 11 Sur 0 -- -- 85
2019-06-02 07:00:00 14 6 Sudoeste 11 Sudoeste 0 -- -- 88
2019-06-02 06:00:00 14.3 5 Sudoeste 14 Sudoeste 0 -- -- 86
2019-06-02 05:00:00 14.5 10 Sudoeste 14 Sudoeste 0 -- -- 85
2019-06-02 04:00:00 14.6 4 Sudoeste 13 Sudoeste 0 -- -- 86
2019-06-02 03:00:00 15.4 6 Sudoeste 9 Sudoeste 0 -- -- 85
2019-06-02 02:00:00 16.6 5 Sudoeste 7 Oeste 0 -- -- 83
2019-06-02 01:00:00 17.6 4 Oeste 10 Sudoeste 0 -- -- 79
2019-06-02 00:00:00 18.8 6 Oeste 9 Sudoeste 0 -- -- 74
2019-06-01 23:00:00 20.1 7 Sudoeste 13 Sudoeste 0 -- -- 68
2019-06-01 22:00:00 21.9 10 Sudoeste 16 Norte 0 -- -- 70
2019-06-01 21:00:00 24.3 14 Norte 24 Norte 0 -- -- 57
2019-06-01 20:00:00 27.7 10 Nordeste 20 Nordeste 0 -- -- 56
2019-06-01 19:00:00 30.7 8 Nordeste 19 Nordeste 0 -- -- 49
2019-06-01 18:00:00 30.6 9 Nordeste 21 Nordeste 0 -- -- 48
2019-06-01 17:00:00 31.3 10 Nordeste 19 Norte 0 -- -- 50
2019-06-01 16:00:00 31 8 Nordeste 16 Nordeste 0 -- -- 54
2019-06-01 15:00:00 31.6 7 Nordeste 15 Sudoeste 0 -- -- 48
2019-06-01 14:00:00 32.2 8 Oeste 26 Sudoeste 0 -- -- 43
2019-06-01 13:00:00 30.6 12 Oeste 24 Oeste 0 -- -- 44
2019-06-01 12:00:00 29.1 13 Oeste 27 Oeste 0 -- -- 46
2019-06-01 11:00:00 27.5 10 Sudoeste 20 Oeste 0 -- -- 53
2019-06-01 10:00:00 23.7 4 Sur 9 Sudoeste 0 -- -- 71
2019-06-01 09:00:00 18.8 4 Sudoeste 9 Sur 0 -- -- 89
2019-06-01 08:00:00 14.5 6 Sudoeste 12 Sudoeste 0 -- -- 98
2019-06-01 07:00:00 12.6 8 Sudoeste 12 Sudoeste 0 -- -- 99
2019-06-01 06:00:00 12.8 7 Sudoeste 10 Sudoeste 0 -- -- 98
2019-06-01 05:00:00 13 6 Sudoeste 12 Oeste 0 -- -- 98
2019-06-01 04:00:00 13.1 9 Sudoeste 12 Sudoeste 0 -- -- 97
2019-06-01 03:00:00 13.6 7 Sudoeste 9 Sudoeste 0 -- -- 96
2019-06-01 02:00:00 14.2 6 Sudoeste 9 Sudoeste 0 -- -- 95
2019-06-01 01:00:00 15.2 4 Sudoeste 8 Sudoeste 0 -- -- 91
2019-06-01 00:00:00 16.7 4 Oeste 6 Norte 0 -- -- 86
2019-05-31 23:00:00 17.6 2 Nordeste 14 Nordeste 0 -- -- 82
2019-05-31 22:00:00 19.4 9 Norte 17 Norte 0 -- -- 74
2019-05-31 21:00:00 21.6 9 Norte 17 Nordeste 0 -- -- 67
2019-05-31 20:00:00 25 11 Norte 23 Norte 0 -- -- 61
2019-05-31 19:00:00 25.7 12 Norte 25 Norte 0 -- -- 61
2019-05-31 18:00:00 25.9 11 Nordeste 27 Nordeste 0 -- -- 58
2019-05-31 17:00:00 26.4 12 Nordeste 25 Norte 0 -- -- 57
2019-05-31 16:00:00 26.7 12 Nordeste 28 Este 0 -- -- 58
2019-05-31 15:00:00 26.6 14 Nordeste 29 Nordeste 0 -- -- 58
2019-05-31 14:00:00 26 11 Nordeste 22 Norte 0 -- -- 59
2019-05-31 13:00:00 25.5 13 Norte 23 Norte 0 -- -- 64
2019-05-31 12:00:00 24.5 13 Norte 18 Norte 0 -- -- 69
2019-05-31 11:00:00 22.3 7 Norte 14 Norte 0 -- -- 73
2019-05-31 10:00:00 19.5 2 Nordeste 5 Este 0 -- -- 79
2019-05-31 09:00:00 15.7 0 Calma 5 Sudoeste 0 -- -- 89
2019-05-31 08:00:00 12.6 3 Sudoeste 7 Sudoeste 0 -- -- 99
2019-05-31 07:00:00 10.5 5 Sudoeste 9 Sudoeste 0 -- -- 99
2019-05-31 06:00:00 10.7 6 Sudoeste 9 Oeste 0 -- -- 98
2019-05-31 05:00:00 11.2 6 Sudoeste 9 Sudoeste 0 -- -- 98
2019-05-31 04:00:00 11.6 5 Sudoeste 9 Sudoeste 0 -- -- 97
2019-05-31 03:00:00 12.1 7 Sudoeste 9 Sudoeste 0 -- -- 96
2019-05-31 02:00:00 13.2 3 Sudoeste 6 Oeste 0 -- -- 94
2019-05-31 01:00:00 13.8 4 Sudoeste 9 Nordeste 0 -- -- 92
2019-05-31 00:00:00 15.5 5 Norte 14 Nordeste 0 -- -- 83
2019-05-30 23:00:00 15.9 7 Nordeste 15 Nordeste 0 -- -- 83
2019-05-30 22:00:00 16.7 6 Nordeste 16 Norte 0 -- -- 80
2019-05-30 21:00:00 18.5 10 Norte 19 Nordeste 0 -- -- 74
2019-05-30 20:00:00 20.7 10 Nordeste 23 Norte 0 -- -- 65
2019-05-30 19:00:00 22.3 12 Nordeste 24 Nordeste 0 -- -- 63
2019-05-30 18:00:00 22.5 14 Norte 26 Nordeste 0 -- -- 62
2019-05-30 17:00:00 23.1 17 Nordeste 26 Norte 0 -- -- 61
2019-05-30 16:00:00 22.9 13 Nordeste 25 Nordeste 0 -- -- 59
2019-05-30 15:00:00 21.8 11 Nordeste 24 Este 0 -- -- 59
2019-05-30 14:00:00 22.5 11 Nordeste 28 Norte 0 -- -- 57
2019-05-30 13:00:00 22.6 9 Nordeste 16 Norte 0 -- -- 61
2019-05-30 12:00:00 21.3 9 Nordeste 17 Nordeste 0 -- -- 61
2019-05-30 11:00:00 19.2 5 Nordeste 12 Nordeste 0 -- -- 68
2019-05-30 10:00:00 15.9 2 Oeste 8 Sudoeste 0 -- -- 76
2019-05-30 09:00:00 12.6 3 Sudoeste 8 Sudoeste 0 -- -- 92
2019-05-30 08:00:00 9.5 4 Sudoeste 8 Sudoeste 0 -- -- 100
2019-05-30 07:00:00 7.4 2 Sudoeste 9 Sudoeste 0 -- -- 100
2019-05-30 06:00:00 7.7 6 Sudoeste 8 Sudoeste 0 -- -- 100
2019-05-30 05:00:00 8.1 5 Sudoeste 7 Sudoeste 0 -- -- 99
2019-05-30 04:00:00 8.5 5 Sudoeste 8 Sudoeste 0 -- -- 99
2019-05-30 03:00:00 9.1 4 Oeste 6 Oeste 0 -- -- 98
2019-05-30 02:00:00 9.8 4 Sudoeste 6 Oeste 0 -- -- 97
2019-05-30 01:00:00 10.7 3 Sudoeste 6 Sudoeste 0 -- -- 96
2019-05-30 00:00:00 11.6 0 Calma 3 Noroeste 0 -- -- 91
2019-05-29 23:00:00 12.5 0 Calma 5 Norte 0 -- -- 90
2019-05-29 22:00:00 13.6 3 Norte 9 Norte 0 -- -- 86
2019-05-29 21:00:00 15.6 6 Norte 18 Norte 0 -- -- 79
2019-05-29 20:00:00 18.4 8 Norte 16 Norte 0 -- -- 69
2019-05-29 19:00:00 19.2 10 Norte 23 Nordeste 0 -- -- 66
2019-05-29 18:00:00 19.1 13 Norte 25 Norte 0 -- -- 69
2019-05-29 17:00:00 19.4 14 Norte 27 Norte 0 -- -- 69
2019-05-29 16:00:00 19.8 14 Nordeste 22 Norte 0 -- -- 69
2019-05-29 15:00:00 19.5 11 Nordeste 21 Nordeste 0 -- -- 72
2019-05-29 14:00:00 18.7 12 Nordeste 20 Nordeste 0 -- -- 67
2019-05-29 13:00:00 18.2 8 Nordeste 18 Nordeste 0 -- -- 71
2019-05-29 12:00:00 17.1 6 Nordeste 13 Norte 0 -- -- 80
2019-05-29 11:00:00 15.9 5 Nordeste 16 Norte 0 -- -- 80
2019-05-29 10:00:00 14.9 5 Nordeste 11 Nordeste 0 -- -- 88
2019-05-29 09:00:00 13.9 2 Nordeste 6 Este 0 -- -- 99
2019-05-29 08:00:00 12.6 3 Oeste 8 Sudoeste 0 -- -- 100
2019-05-29 07:00:00 12.2 6 Oeste 9 Oeste 0 -- -- 100
2019-05-29 06:00:00 12.2 6 Oeste 13 Nordeste 1.8 -- -- 99
2019-05-29 05:00:00 12.2 2 Noroeste 8 Este 1.2 -- -- 99
2019-05-29 04:00:00 12.2 6 Sudoeste 12 Oeste 0 -- -- 98
2019-05-29 03:00:00 12.4 7 Oeste 12 Sudoeste 0.2 -- -- 96
2019-05-29 02:00:00 12.9 8 Norte 15 Norte 0.4 -- -- 93
2019-05-29 01:00:00 13.4 4 Noroeste 9 Norte 0 -- -- 87
2019-05-29 00:00:00 13.6 3 Nordeste 23 Norte 0 -- -- 85
2019-05-28 23:00:00 13.8 9 Norte 23 Norte 0 -- -- 83
2019-05-28 22:00:00 14.1 10 Norte 23 Norte 0 -- -- 80
2019-05-28 21:00:00 14.6 12 Norte 28 Norte 0 -- -- 78
2019-05-28 20:00:00 16 17 Norte 36 Norte 0 -- -- 72
2019-05-28 19:00:00 16.3 24 Norte 45 Norte 0 -- -- 73
2019-05-28 18:00:00 17.8 14 Norte 38 Norte 0 -- -- 71
2019-05-28 17:00:00 17.8 14 Norte 34 Norte 0 -- -- 72
2019-05-28 16:00:00 17.1 18 Norte 34 Nordeste 0 -- -- 75
2019-05-28 15:00:00 16 18 Norte 36 Nordeste 0 -- -- 76
2019-05-28 14:00:00 15.2 11 Norte 28 Nordeste 0.8 -- -- 87
2019-05-28 13:00:00 14.7 18 Norte 32 Norte 0 -- -- 84
2019-05-28 12:00:00 16.3 15 Norte 32 Norte 0 -- -- 75
2019-05-28 11:00:00 14.9 6 Este 12 Sudoeste 0 -- -- 88
2019-05-28 10:00:00 13.2 5 Sur 17 Noroeste 0 -- -- 100
2019-05-28 09:00:00 11.7 4 Sur 10 Sudoeste 0.6 -- -- 100
2019-05-28 08:00:00 10.8 4 Sudoeste 9 Sudoeste 0 -- -- 100
2019-05-28 07:00:00 10.2 5 Sudoeste 10 Sudoeste 0 -- -- 100
2019-05-28 06:00:00 10.2 3 Sudoeste 8 Sudoeste 0 -- -- 100
2019-05-28 05:00:00 10.2 4 Oeste 11 Sudoeste 0 -- -- 100
2019-05-28 04:00:00 10.2 6 Sudoeste 11 Sudoeste 0 -- -- 99
2019-05-28 03:00:00 10.6 5 Sudoeste 9 Sudoeste 0 -- -- 99
2019-05-28 02:00:00 11 4 Sudoeste 15 Oeste 0 -- -- 98
2019-05-28 01:00:00 11.6 5 Sudoeste 10 Oeste 0 -- -- 96
2019-05-28 00:00:00 12.7 2 Este 12 Norte 0 -- -- 91
2019-05-27 23:00:00 13.3 7 Norte 13 Norte 0 -- -- 87
2019-05-27 22:00:00 14.1 4 Norte 22 Norte 0 -- -- 86
2019-05-27 21:00:00 14.5 5 Norte 23 Norte 0 -- -- 86
2019-05-27 20:00:00 14.9 10 Norte 21 Nordeste 0 -- -- 88
2019-05-27 19:00:00 15.3 10 Nordeste 25 Nordeste 0 -- -- 93
2019-05-27 18:00:00 15.9 7 Nordeste 20 Nordeste 0 -- -- 94
2019-05-27 17:00:00 16.6 9 Nordeste 23 Nordeste 0 -- -- 92
2019-05-27 16:00:00 15.8 5 Este 12 Oeste 0.8 -- -- 95
2019-05-27 15:00:00 16 4 Oeste 16 Sudoeste 0.2 -- -- 91
2019-05-27 14:00:00 15.8 4 Sudoeste 19 Oeste 0 -- -- 93
2019-05-27 13:00:00 15.2 4 Oeste 15 Oeste 0.4 -- -- 93
2019-05-27 12:00:00 14.7 5 Oeste 12 Sudoeste 0 -- -- 92
2019-05-27 11:00:00 14.7 6 Sudoeste 14 Oeste 0 -- -- 93
2019-05-27 10:00:00 14.1 5 Oeste 13 Oeste 0 -- -- 95
2019-05-27 09:00:00 13.1 4 Noroeste 17 Noroeste 0 -- -- 98
2019-05-27 08:00:00 12.7 4 Oeste 9 Sudoeste 0.2 -- -- 100
2019-05-27 07:00:00 12.6 4 Sudoeste 7 Sudoeste 0.2 -- -- 100
2019-05-27 06:00:00 12.7 5 Sudoeste 9 Sudoeste 0.2 -- -- 100
2019-05-27 05:00:00 12.7 2 Noroeste 10 Sudoeste 0 -- -- 100
2019-05-27 04:00:00 12.7 7 Sudoeste 10 Sudoeste 0 -- -- 100
2019-05-27 03:00:00 12.9 4 Sur 10 Sudoeste 0 -- -- 100
2019-05-27 02:00:00 13.1 6 Sudoeste 9 Sudoeste 0 -- -- 99
2019-05-27 01:00:00 13.3 3 Oeste 6 Sudeste 0.2 -- -- 99
2019-05-27 00:00:00 13.4 0 Calma 7 Este 0 -- -- 99
2019-05-26 23:00:00 13.7 4 Sudoeste 7 Sudoeste 0 -- -- 98
2019-05-26 22:00:00 13.9 5 Oeste 6 Oeste 0 -- -- 97
2019-05-26 21:00:00 14.6 0 Calma 12 Nordeste 0.2 -- -- 93
2019-05-26 20:00:00 14.9 4 Nordeste 15 Nordeste 0 -- -- 92
2019-05-26 19:00:00 15.7 6 Nordeste 21 Nordeste 0 -- -- 86
2019-05-26 18:00:00 16.8 8 Nordeste 21 Nordeste 0 -- -- 81
2019-05-26 17:00:00 17.5 10 Norte 19 Norte 0 -- -- 79
2019-05-26 16:00:00 17.3 11 Nordeste 24 Norte 0 -- -- 82
2019-05-26 15:00:00 16.1 7 Nordeste 19 Norte 0 -- -- 89
2019-05-26 14:00:00 16.3 5 Nordeste 14 Norte 0 -- -- 87
2019-05-26 13:00:00 15.3 3 Sudoeste 6 Este 0 -- -- 94
2019-05-26 12:00:00 14.3 4 Este 7 Oeste 1.2 -- -- 97
2019-05-26 11:00:00 14.3 3 Sudoeste 8 Sudoeste 0.2 -- -- 97
2019-05-26 10:00:00 13.9 4 Sudoeste 12 Oeste 0 -- -- 94
2019-05-26 09:00:00 13.6 5 Oeste 16 Noroeste 0 -- -- 94
2019-05-26 08:00:00 12.8 7 Sudoeste 10 Sudoeste 0 -- -- 96
2019-05-26 07:00:00 12.4 0 Calma 4 Sudoeste 0 -- -- 97
2019-05-26 06:00:00 12.4 0 Calma 7 Sur 0 -- -- 97
2019-05-26 05:00:00 12.4 5 Sudoeste 9 Sudoeste 0 -- -- 97
2019-05-26 04:00:00 12.5 3 Sudoeste 6 Sudoeste 0 -- -- 96
2019-05-26 03:00:00 12.6 2 Sur 9 Sudoeste 0 -- -- 95
2019-05-26 02:00:00 12.7 4 Sudoeste 6 Sudoeste 0 -- -- 94
2019-05-26 01:00:00 13 3 Sur 7 Sudoeste 0 -- -- 92
2019-05-26 00:00:00 13.5 3 Oeste 6 Sudoeste 0 -- -- 89